Time;durP1;ratioP1;P1;durP2;ratioP2;P2;SDS_P1;SDS_P2;PMS_P1;PMS_P2;Temp;Humidity;BMP_temperature;BMP_pressure;BME280_temperature;BME280_humidity;BME280_pressure;Samples;Min_cycle;Max_cycle;Signal;HPM_P1;HPM_P2
2022/12/16 00:01:39;;;;;;;26.52;11.85;;;-1.10;91.90;;;;;;5004560;28;20033;-83
2022/12/16 00:04:05;;;;;;;26.87;12.80;;;-1.10;91.90;;;;;;5004325;28;20033;-83
2022/12/16 00:06:33;;;;;;;26.60;11.68;;;-1.10;92.00;;;;;;4994448;28;20338;-83
2022/12/16 00:08:59;;;;;;;28.02;11.75;;;-1.10;92.10;;;;;;5026862;28;20417;-83
2022/12/16 00:11:25;;;;;;;30.27;13.55;;;-1.10;92.40;;;;;;4988537;28;20170;-83
2022/12/16 00:13:51;;;;;;;33.20;14.10;;;-1.00;92.80;;;;;;4989025;28;20052;-83
2022/12/16 00:16:19;;;;;;;29.55;13.90;;;-0.90;93.20;;;;;;4984848;28;20033;-82
2022/12/16 00:18:45;;;;;;;29.42;13.35;;;-0.90;93.60;;;;;;4994097;28;20360;-82
2022/12/16 00:21:11;;;;;;;32.15;15.02;;;-0.80;94.00;;;;;;4997128;28;20432;-82
2022/12/16 00:23:40;;;;;;;34.30;15.83;;;-0.70;94.30;;;;;;4989635;28;20040;-82
2022/12/16 00:26:06;;;;;;;31.05;15.10;;;-0.60;94.50;;;;;;5006891;28;21646;-82
2022/12/16 00:28:33;;;;;;;25.73;12.63;;;-0.50;94.60;;;;;;4963975;28;20499;-82
2022/12/16 00:30:59;;;;;;;23.58;11.40;;;-0.40;94.70;;;;;;4986831;28;20435;-82
2022/12/16 00:33:26;;;;;;;26.67;12.97;;;-0.30;94.70;;;;;;4993809;28;20020;-82
2022/12/16 00:35:53;;;;;;;24.35;11.48;;;-0.30;94.70;;;;;;4998793;28;20470;-82
2022/12/16 00:38:20;;;;;;;21.38;10.13;;;-0.20;94.70;;;;;;4990704;28;20025;-82
2022/12/16 00:40:46;;;;;;;21.60;10.35;;;-0.10;94.80;;;;;;5020661;28;20056;-82
2022/12/16 00:43:12;;;;;;;16.60;8.63;;;-0.10;94.90;;;;;;4999815;28;20024;-82
2022/12/16 00:45:38;;;;;;;20.40;10.30;;;0.00;95.50;;;;;;4974236;28;20249;-82
2022/12/16 00:48:05;;;;;;;21.52;10.80;;;0.00;95.40;;;;;;4995715;28;20112;-82
2022/12/16 00:50:31;;;;;;;23.42;10.50;;;0.10;95.60;;;;;;5019212;28;20040;-82
2022/12/16 00:52:57;;;;;;;22.27;10.37;;;0.20;95.80;;;;;;4986995;28;20025;-81
2022/12/16 00:55:24;;;;;;;20.95;9.90;;;0.30;96.00;;;;;;5016790;28;20029;-81
2022/12/16 00:57:50;;;;;;;20.23;9.88;;;0.30;96.10;;;;;;4995309;28;20108;-82
2022/12/16 01:00:17;;;;;;;22.35;10.38;;;0.50;96.80;;;;;;4989363;28;20047;-81
2022/12/16 01:02:44;;;;;;;18.55;9.43;;;0.50;96.60;;;;;;5008667;28;20163;-81
2022/12/16 01:05:12;;;;;;;18.63;8.93;;;0.60;96.80;;;;;;5007059;28;20080;-81
2022/12/16 01:07:38;;;;;;;18.00;9.35;;;0.70;97.10;;;;;;4995862;28;20341;-81
2022/12/16 01:10:06;;;;;;;22.60;10.40;;;0.80;97.30;;;;;;5010471;28;20041;-81
2022/12/16 01:12:32;;;;;;;25.63;12.30;;;0.80;97.50;;;;;;5020486;28;20107;-81
2022/12/16 01:14:59;;;;;;;25.63;12.80;;;0.90;97.70;;;;;;5011916;28;20020;-81
2022/12/16 01:17:25;;;;;;;24.30;11.90;;;1.00;97.90;;;;;;5025778;28;20056;-81
2022/12/16 01:19:52;;;;;;;22.30;10.90;;;1.10;98.00;;;;;;4997807;28;20392;-81
2022/12/16 01:22:18;;;;;;;22.90;11.00;;;1.20;98.20;;;;;;5005970;28;20026;-81
2022/12/16 01:24:44;;;;;;;22.63;11.03;;;1.20;98.20;;;;;;4994705;28;20029;-81
2022/12/16 01:27:11;;;;;;;20.58;10.63;;;1.30;98.30;;;;;;5021595;28;20063;-81
2022/12/16 01:29:37;;;;;;;23.27;11.18;;;1.40;98.30;;;;;;4990137;28;20186;-81
2022/12/16 01:32:03;;;;;;;20.57;10.10;;;1.40;98.40;;;;;;5038788;28;20128;-81
2022/12/16 01:34:29;;;;;;;24.40;11.60;;;1.50;98.40;;;;;;4995556;28;20053;-80
2022/12/16 01:36:55;;;;;;;21.63;10.30;;;1.50;98.40;;;;;;5004553;28;20155;-81
2022/12/16 01:39:20;;;;;;;22.27;10.70;;;1.50;98.50;;;;;;5033629;28;20040;-81
2022/12/16 01:41:46;;;;;;;22.20;10.37;;;1.60;98.60;;;;;;4984841;28;20037;-81
2022/12/16 01:44:18;;;;;;;19.60;9.95;;;1.60;98.60;;;;;;5028055;28;20072;-81
2022/12/16 01:46:58;;;;;;;20.03;9.47;;;1.70;98.60;;;;;;5011088;28;20125;-81
2022/12/16 01:49:33;;;;;;;18.35;9.52;;;1.70;98.40;;;;;;5012335;28;20025;-81
2022/12/16 01:52:02;;;;;;;21.40;9.70;;;1.70;98.60;;;;;;5017391;28;20032;-80
2022/12/16 01:54:34;;;;;;;22.15;10.57;;;1.80;98.60;;;;;;5035464;28;20531;-81
2022/12/16 01:57:05;;;;;;;19.38;10.25;;;1.80;98.60;;;;;;5025616;28;20038;-81
2022/12/16 01:59:34;;;;;;;19.90;10.20;;;1.80;98.60;;;;;;5017672;28;20587;-80
2022/12/16 02:02:02;;;;;;;21.38;10.23;;;1.80;98.70;;;;;;5009874;28;20037;-81
2022/12/16 02:04:28;;;;;;;21.45;10.57;;;1.90;98.90;;;;;;5004829;28;20054;-81
2022/12/16 02:06:54;;;;;;;18.77;10.10;;;1.90;98.90;;;;;;5037350;28;20116;-80
2022/12/16 02:09:20;;;;;;;20.95;10.20;;;1.90;98.90;;;;;;5017710;28;20050;-80
2022/12/16 02:12:01;;;;;;;20.08;10.02;;;1.90;98.90;;;;;;4998765;28;20683;-80
2022/12/16 02:14:59;;;;;;;21.60;10.70;;;1.90;98.90;;;;;;5012466;28;20404;-80
2022/12/16 02:17:43;;;;;;;22.90;11.15;;;1.90;98.40;;;;;;5003904;28;20028;-80
2022/12/16 02:20:17;;;;;;;19.30;9.23;;;1.90;98.60;;;;;;4992924;28;20387;-80
2022/12/16 02:22:46;;;;;;;18.63;9.20;;;1.90;99.00;;;;;;5025230;28;20523;-80
2022/12/16 02:25:25;;;;;;;17.55;9.45;;;1.90;99.30;;;;;;5032463;28;20061;-80
2022/12/16 02:28:10;;;;;;;16.58;9.13;;;2.00;99.40;;;;;;4997953;28;20059;-80
2022/12/16 02:30:38;;;;;;;17.65;8.65;;;2.00;99.20;;;;;;5015008;28;20223;-80
2022/12/16 02:33:28;;;;;;;19.53;9.83;;;2.00;99.60;;;;;;4987033;28;20115;-80
2022/12/16 02:36:38;;;;;;;19.50;9.50;;;2.00;99.40;;;;;;5018583;28;21287;-80
2022/12/16 02:39:19;;;;;;;18.52;9.30;;;2.10;99.50;;;;;;5005915;28;20275;-80
2022/12/16 02:41:56;;;;;;;19.70;9.30;;;2.10;99.70;;;;;;5033091;28;20037;-80
2022/12/16 02:44:40;;;;;;;16.40;9.00;;;2.10;99.70;;;;;;5007926;28;20344;-80
2022/12/16 02:47:06;;;;;;;17.20;8.87;;;2.20;99.90;;;;;;4991033;28;20026;-80
2022/12/16 02:49:31;;;;;;;18.33;9.50;;;2.20;99.90;;;;;;5002092;28;20096;-80
2022/12/16 02:51:59;;;;;;;18.50;9.40;;;2.20;99.90;;;;;;5005913;28;20516;-80
2022/12/16 02:54:27;;;;;;;19.42;9.18;;;2.30;99.90;;;;;;4994718;28;20625;-80
2022/12/16 02:57:09;;;;;;;16.95;9.32;;;2.30;99.90;;;;;;5015671;28;20822;-80
2022/12/16 02:59:51;;;;;;;20.00;10.30;;;2.30;99.90;;;;;;5006463;28;20428;-80
2022/12/16 03:02:54;;;;;;;18.57;9.73;;;2.40;99.90;;;;;;5029532;28;20374;-80
2022/12/16 03:05:39;;;;;;;19.73;9.57;;;2.30;99.90;;;;;;4971139;28;20254;-80
2022/12/16 03:08:11;;;;;;;15.43;8.48;;;2.40;99.90;;;;;;5000822;28;20359;-80
2022/12/16 03:10:46;;;;;;;19.00;9.07;;;2.40;99.90;;;;;;5014494;28;20025;-81
2022/12/16 03:13:15;;;;;;;18.95;9.27;;;2.40;99.90;;;;;;5022065;28;20033;-80
2022/12/16 03:15:42;;;;;;;20.73;9.47;;;2.40;99.90;;;;;;4982404;28;20041;-80
2022/12/16 03:18:10;;;;;;;17.88;9.68;;;2.50;99.90;;;;;;5030056;28;20046;-80
2022/12/16 03:20:51;;;;;;;18.98;9.05;;;2.50;99.90;;;;;;4980712;28;20096;-80
2022/12/16 03:23:27;;;;;;;17.92;9.18;;;2.50;99.90;;;;;;4997654;28;20876;-80
2022/12/16 03:26:00;;;;;;;16.20;9.02;;;2.50;99.90;;;;;;5015586;28;20191;-81
2022/12/16 03:28:42;;;;;;;17.40;8.97;;;2.50;99.90;;;;;;5004278;28;20063;-79
2022/12/16 03:31:30;;;;;;;17.88;9.02;;;2.50;99.90;;;;;;4991322;28;20037;-80
2022/12/16 03:34:04;;;;;;;17.35;8.85;;;2.60;99.90;;;;;;5020815;28;20083;-79
2022/12/16 03:36:34;;;;;;;17.35;9.35;;;2.60;99.90;;;;;;4987165;28;20037;-80
2022/12/16 03:39:01;;;;;;;17.02;8.95;;;2.60;99.90;;;;;;5005517;28;20037;-80
2022/12/16 03:41:29;;;;;;;16.23;8.57;;;2.60;99.90;;;;;;5033903;28;20036;-79
2022/12/16 03:43:55;;;;;;;19.83;8.88;;;2.60;99.90;;;;;;5031879;28;20028;-80
2022/12/16 03:46:20;;;;;;;18.42;8.95;;;2.60;99.90;;;;;;5018723;28;20073;-80
2022/12/16 03:48:49;;;;;;;16.92;8.45;;;2.60;99.90;;;;;;5005631;28;20408;-80
2022/12/16 03:51:15;;;;;;;16.67;8.47;;;2.60;99.90;;;;;;5005726;28;20017;-80
2022/12/16 03:53:41;;;;;;;18.90;9.15;;;2.70;99.90;;;;;;5004993;28;20075;-79
2022/12/16 03:56:07;;;;;;;17.85;8.73;;;2.70;99.90;;;;;;4986282;28;20171;-80
2022/12/16 03:58:34;;;;;;;19.20;8.77;;;2.70;99.90;;;;;;5022829;28;20568;-79
2022/12/16 04:01:00;;;;;;;18.97;8.43;;;2.70;99.90;;;;;;4992727;28;20389;-80
2022/12/16 04:03:26;;;;;;;19.35;9.27;;;2.70;99.90;;;;;;4972305;28;20036;-80
2022/12/16 04:05:51;;;;;;;19.50;8.38;;;2.70;99.90;;;;;;5038393;28;20067;-79
2022/12/16 04:08:17;;;;;;;17.33;8.25;;;2.70;99.90;;;;;;4988932;28;20033;-79
2022/12/16 04:24:31;;;;;;;17.23;8.23;;;2.80;99.90;;;;;;5013181;28;20102;-79
2022/12/16 04:32:25;;;;;;;16.50;7.20;;;2.80;99.90;;;;;;5026481;28;20366;-79
2022/12/16 04:34:51;;;;;;;13.50;6.43;;;2.80;99.90;;;;;;5015148;28;20025;-79
